This is the latest recevied weather packets stored in our database for station/object S57PNX-8. If no packets are shown the sender has not sent any weather packets the latest 10 day(s).
| Time | Temp. | Humidity | Pressure | Rain* | Wind** | Luminosity | Snow |
|---|---|---|---|---|---|---|---|
| 1778185491 | 11.11° C | 100% | 1021.3 hPa | - | - | - | - |
| 1778184590 | 11.11° C | 100% | 1021.2 hPa | - | - | - | - |
| 1778183691 | 11.11° C | 100% | 1021.1 hPa | - | - | - | - |
| 1778182792 | 11.67° C | 100% | 1020.9 hPa | - | - | - | - |
| 1778181893 | 11.67° C | 96% | 1020.8 hPa | - | - | - | - |
| 1778181050 | 11.67° C | 95% | 1020.7 hPa | - | - | - | - |
| 1778180994 | 11.67° C | 95% | 1020.7 hPa | - | - | - | - |
| 1778180091 | 12.22° C | 94% | 1020.6 hPa | - | - | - | - |
| 1778179192 | 12.22° C | 95% | 1020.5 hPa | - | - | - | - |
| 1778178293 | 12.78° C | 95% | 1020.4 hPa | - | - | - | - |
| 1778177391 | 12.78° C | 95% | 1020.3 hPa | - | - | - | - |
| 1778176493 | 12.78° C | 95% | 1020.2 hPa | - | - | - | - |
| 1778175594 | 12.78° C | 96% | 1020 hPa | - | - | - | - |
| 1778174696 | 12.78° C | 95% | 1019.8 hPa | - | - | - | - |
| 1778173797 | 13.33° C | 91% | 1019.8 hPa | - | - | - | - |
| 1778172896 | 13.33° C | 89% | 1019.9 hPa | - | - | - | - |
| 1778171993 | 13.89° C | 87% | 1019.9 hPa | - | - | - | - |
| 1778171094 | 14.44° C | 80% | 1020 hPa | - | - | - | - |
| 1778170195 | 16.11° C | 71% | 1019.8 hPa | - | - | - | - |
| 1778169294 | 17.22° C | 66% | 1019.6 hPa | - | - | - | - |
| 1778168394 | 16.11° C | 78% | 1019.6 hPa | - | - | - | - |
| 1778167492 | 15.56° C | 82% | 1019.2 hPa | - | - | - | - |
| 1778166594 | 14.44° C | 92% | 1019.2 hPa | - | - | - | - |
| 1778165692 | 13.89° C | 100% | 1019 hPa | - | - | - | - |
| 1778164793 | 13.33° C | 100% | 1019.2 hPa | - | - | - | - |
* Rain since midnight (hover to see other rain measurements)
** Current wind speed in m/s (hover to see current wind gust speed)